createdAt,value
2022-12-12T00:03:00.060Z,0.2
2022-12-12T00:13:00.089Z,0.3
2022-12-12T00:23:00.410Z,0.2
2022-12-12T00:33:00.814Z,0.2
2022-12-12T00:43:01.792Z,0.2
2022-12-12T00:53:02.708Z,0.2
2022-12-12T01:03:03.769Z,0.2
2022-12-12T01:13:04.669Z,0.2
2022-12-12T01:23:05.354Z,0.2
2022-12-12T01:33:06.057Z,0.3
2022-12-12T01:43:06.516Z,0.2
2022-12-12T01:53:07.035Z,0.1
2022-12-12T02:03:08.108Z,0.2
2022-12-12T02:13:08.402Z,0.2
2022-12-12T02:23:09.144Z,0.2
2022-12-12T02:33:09.277Z,0.2
2022-12-12T02:43:09.492Z,0.2
2022-12-12T02:53:10.437Z,0.2
2022-12-12T03:03:10.897Z,0.2
2022-12-12T03:13:11.121Z,0.2
2022-12-12T03:23:11.950Z,0.3
2022-12-12T03:33:12.439Z,0.3
2022-12-12T03:43:13.277Z,0.3
2022-12-12T03:53:14.365Z,0.3
2022-12-12T04:03:14.558Z,0.3
2022-12-12T04:13:15.488Z,0.2
2022-12-12T04:23:16.433Z,0.2
2022-12-12T04:33:17.004Z,0.1
2022-12-12T04:43:17.801Z,0.1
2022-12-12T04:53:18.947Z,0.1
2022-12-12T05:13:25.465Z,0
2022-12-12T05:23:30.194Z,0.1
2022-12-12T05:33:27.264Z,0.1
2022-12-12T05:43:27.517Z,0.1
2022-12-12T05:53:28.107Z,0.1
2022-12-12T06:03:29.170Z,0.1
2022-12-12T06:13:29.859Z,0.1
2022-12-12T06:23:30.068Z,0.1
2022-12-12T06:33:30.295Z,0.1
2022-12-12T06:53:31.936Z,0.1
2022-12-12T07:03:32.471Z,0.1
2022-12-12T07:13:32.815Z,0.1
2022-12-12T07:23:33.783Z,0.1
2022-12-12T07:33:42.980Z,0
2022-12-12T07:43:38.500Z,0
2022-12-12T07:53:36.023Z,-0.1
2022-12-12T08:03:36.665Z,-0.1
2022-12-12T08:13:37.533Z,0
2022-12-12T08:23:37.856Z,0.1
2022-12-12T08:33:38.260Z,0.1
2022-12-12T08:43:38.894Z,0.2
2022-12-12T08:53:39.220Z,0.2
2022-12-12T09:13:40.140Z,0.3
2022-12-12T09:23:40.334Z,0.4
2022-12-12T09:33:40.673Z,0.5
2022-12-12T09:43:40.779Z,0.5
2022-12-12T09:53:41.227Z,0.4
2022-12-12T10:03:41.569Z,0.3
2022-12-12T10:13:42.176Z,0.5
2022-12-12T10:23:42.662Z,0.5
2022-12-12T10:33:43.171Z,0.5
2022-12-12T10:53:45.180Z,0.6
2022-12-12T11:03:45.384Z,0.5
2022-12-12T11:13:46.337Z,0.6
2022-12-12T11:23:47.040Z,0.6
2022-12-12T11:33:47.402Z,0.7
2022-12-12T11:43:47.941Z,0.7
2022-12-12T11:53:48.659Z,0.8
2022-12-12T12:03:49.307Z,1
2022-12-12T12:13:49.883Z,1
2022-12-12T12:23:50.983Z,1
2022-12-12T12:33:51.468Z,1.1
2022-12-12T12:53:52.418Z,1.8
2022-12-12T13:03:52.984Z,2.3
2022-12-12T13:13:53.832Z,1.9
2022-12-12T13:23:54.233Z,2.1
2022-12-12T13:43:55.559Z,1.6
2022-12-12T13:53:56.296Z,1.6
2022-12-12T14:03:56.858Z,1.5
2022-12-12T14:13:57.290Z,1.4
2022-12-12T14:23:57.510Z,1.2
2022-12-12T14:33:58.349Z,1
2022-12-12T14:44:34.748Z,0.9
2022-12-12T14:53:59.543Z,0.7
2022-12-12T15:04:00.138Z,0.4
2022-12-12T15:14:01.028Z,0.2
2022-12-12T15:24:01.323Z,0.1
2022-12-12T16:14:04.964Z,-0.9
2022-12-12T16:54:07.377Z,-1.5
2022-12-12T17:04:08.015Z,-1.6
2022-12-12T17:14:08.770Z,-1.7
2022-12-12T17:34:10.043Z,-2
2022-12-12T17:44:10.173Z,-2.1
2022-12-12T18:04:11.456Z,-2.3
2022-12-12T18:34:13.401Z,-2.6
2022-12-12T19:04:21.118Z,-2.9
2022-12-12T19:14:16.332Z,-2.9
2022-12-12T19:24:17.021Z,-3.1
2022-12-12T19:44:18.389Z,-3.1
2022-12-12T19:54:18.706Z,-3.2
2022-12-12T20:04:19.152Z,-3.3
2022-12-12T20:14:19.847Z,-3.4
2022-12-12T20:34:20.158Z,-3.5
2022-12-12T20:54:21.047Z,-3.7
2022-12-12T21:04:22.131Z,-3.6
2022-12-12T21:14:22.695Z,-3.6
2022-12-12T21:34:23.946Z,-3.7
2022-12-12T21:44:24.396Z,-3.8
2022-12-12T22:04:25.969Z,-4
2022-12-12T22:14:26.256Z,-4.1
2022-12-12T22:24:26.444Z,-4.2
2022-12-12T22:34:27.006Z,-4.3
2022-12-12T22:44:27.539Z,-4.4
2022-12-12T23:23:40.850Z,-4.6
2022-12-12T23:33:40.953Z,-4.7
2022-12-12T23:43:41.454Z,-4.8
2022-12-12T23:53:42.224Z,-4.8
